Aérodrome :
LOGIN :

S'inscrire | Disclaimer

   EN    FR    IT 

 










Légende :    VFR   VFR Marginal   IFR   IFR Intensif   IFR Très Intensif
Visi : 
Plafond : 
>= 8 km
>= 3000ft
5 à 8 km
1000 à 3000 ft
1500m à 5 km
500 à 1000 ft
800 à 1500m
200 à 500 ft
< 800m
< 200 ft
Symboles :   Orages  Brouillard  Fortes neiges  Fortes précipitations  Vent > 20 kt
SIGMETs :   Divers  Orages  Givrage  Turbulence  Onde Orograph.  Cendres Volcan.






- Altitude de l'aérodrome : 55 ft


EGNO - Warton Preston

DERNIER METAR :
  • 221550Z 11008KT 080V140 9999 FEW046 08/06 Q0993

METARs EXPIRÉS :
  • 221520Z 11007KT 9999 FEW046 08/06 Q0993
  • 221450Z 11007KT 9999 FEW022 08/06 Q0993
  • 221420Z 12007KT 090V150 9999 FEW028 08/06 Q0993
  • 221350Z 12009KT 9999 FEW020 08/06 Q0993
  • 221320Z 13009KT 100V160 9999 FEW015 SCT022 BKN049 09/06 Q0993

TAF TAF EGNO
Valide du 22 à 15h jusqu'au 22 à 19h UTC


221356Z 2215/2219 11010KT 9999 SCT012
TEMPO 2215/2219 6000 RA BKN014
ATIS : +44 1772 856 060



MET'MAP, la Météo Aéronautique d'un coup d'oeil ! - Copyright ORBIFLY Décembre 2007 - Disclaimer

ORBIFLY MET'MAP TEAM :

Programmation & Développement : Alexandra Zaïnal
Conception & Développement : Baudouin d'Aumeries
Co-Programmation & Développement : Marc-Olivier Méhu
Soutien technique & logistique : Manuel Goepfert

Contact : metmap@orbifly.com




SOURCES & CREDITS :

   NOAA